Relevés horaires St-Hubert (Belgique)


Relevés horaires à St-Hubert - Dimanche 09 Juin 2019
Heure UTC1 Température [°C] Vent [km/h] Hum. [%] Pres.4 [hPa] Visi. [Km] Nébu. [octa] Préc.5 [mm] Cond.
2m. Res. Ros. Dir.2 Vit. Moy. Raf.3
23:00 11.3 10.7 8.0 ENE 7.4 7.4 9.3 80 1017.4(-1.1/3h) 45 3/8 -- --
22:00 12.0 11.5 8.0 NE 7.4 7.4 9.3 76 1017.8(-0.9/3h) 45 0/8 -- --
21:00 12.7 12.3 8.2 NE 7.4 7.4 11.1 74 1018(-0.4/3h) 45 0/8 -- --
20:00 13.1 13.1 8.4 NE 5.6 7.4 9.3 73 1018.1(-0.7/3h) 45 0/8 -- --
19:00 14.0 14.0 8.0 NNE 5.6 7.4 9.3 67 1018.3(-0.9/3h) 45 0/8 -- --
18:00 15.3 15.3 8.0 NNE 5.6 7.4 11.1 62 1017.8(-1.5/3h) 40 0/8 0/12h
--
17:00 15.9 15.9 7.3 NE 5.6 7.4 9.3 57 1018.2(-1.5/3h) 35 0/8 -- --
16:00 16.0 16.0 6.9 NE 3.7 5.6 9.3 55 1018.9(-1.9/3h) 40 0/8 -- --
15:00 16.1 16.1 8.0 ENE 3.7 5.6 11.1 59 1019.2(-1.8/3h) 40 0/8 -- --
14:00 15.4 15.4 7.2 NNO 1.9 5.6 7.4 58 1019.9(-1.8/3h) 35 0/8 -- --
13:00 15.2 15.2 6.1 SE 1.9 5.6 7.4 55 1021.1(-1.3/3h) 40 0/8 -- --
12:00 15.6 15.6 7.0 SSE 3.7 7.4 13.0 57 1021.3(-1.3/3h) 30 7/8 0/6h
--
11:00 14.9 14.9 6.5 ESE 5.6 7.4 13.0 57 1022(-1.3/3h) 40 8/8 -- --
10:00 14.9 14.9 6.8 NNO 5.6 7.4 13.0 58 1022.5(-0.8/3h) 30 7/8 -- --
09:00 14.6 14.6 9.0 SE 5.6 7.4 11.1 69 1022.9(-0.3/3h) 30 4/8 -- --
08:00 13.5 13.2 7.7 E 7.4 7.4 11.1 68 1023.7(0.1/3h) 35 0/8 -- --
07:00 12.8 12.8 7.9 E 5.6 5.6 9.3 72 1023.8(0.1/3h) 35 0/8 -- --
06:00 11.5 11.3 7.9 E 5.6 5.6 7.4 79 1024(-0.2/3h) 35 0/8 0/12h
--
05:00 8.1 8.1 6.8 ESE 3.7 3.7 5.6 91 1024.8(-0.5/3h) 40 0/8 -- --
04:00 6.8 6.8 5.1 SE 1.9 1.9 3.7 89 1025.2(-0.5/3h) 45 0/8 -- --
03:00 7.1 7.1 5.0 S 1.9 3.7 5.6 86 1025.3(-0.3/3h) 45 0/8 -- --
02:00 7.1 7.1 5.6 S 1.9 3.7 5.6 90 1025.6(0.1/3h) 45 0/8 -- --
01:00 7.8 7.8 6.5 SSE 3.7 3.7 5.6 91 1025.4(0.0/3h) 45 0/8 -- --
00:00 7.3 7.3 6.0 SSE 3.7 7.4 14.8 91 1025.5(0.2/3h) 45 0/8 0/6h
0/24h
--

1 Coordinated Universal Time. Actuellement il est 20:00 locale et 18:00 UTC.

2 Le vent souffle depuis la direction indiquée vers la direction oposée.

3 Les rafales max. sont disponible 40 min après l'heure du relevé.

4 Pour les stations d'altitude (plus de 600m) le géopotentiel du niveau le plus proche de la pression obligatoire est indiqué.

5 Les stations disposant d'un diffuseur peuvent indiquer "trace". Cela signifie que des précipitations ont touchés le sol mais que la quantité est inférieure à 0.1 mm.

Récapitulatif de la journée
Température [°C] Vent [km/h] Ensoleillement4 [h] Precipitations totale5 [mm] Pression [Hpa]
Min1 Max.2 Moy.3 Max. Min Max.
6.3 16.3 6.1 14.8 0 h 0 min 0 1017.4 1025.6

1 Température minimale relevée entre 18:00 UTC la veille et 18:00 UTC le jour donné.

2 Température maximale relevée entre 06:00 UTC le jour donné et 06:00 UTC le lendemain.

3 Vent moyen de la journée basé sur les relevés horaires.

4 Ensoleillement en heures relevé entre 06:00 UTC la veille et 06:00 UTC le jour donné.

5 Précipitations totales tombées entre 06:00 UTC la jour donné et 06:00 UTC le lendemain.

Graphiques horaires